Time;durP1;ratioP1;P1;durP2;ratioP2;P2;SDS_P1;SDS_P2;PMS_P1;PMS_P2;Temp;Humidity;BMP_temperature;BMP_pressure;BME280_temperature;BME280_humidity;BME280_pressure;Samples;Min_cycle;Max_cycle;Signal;HPM_P1;HPM_P2
2021/01/21 00:00:06;;;;;;;43.71;22.43;;;;;;;-6.07;70.48;99581.45;349418;113;1962064;-71
2021/01/21 00:01:24;;;;;;;41.99;20.62;;;;;;;-6.09;70.60;99575.45;351028;115;1962050;-71
2021/01/21 00:02:29;;;;;;;43.55;22.09;;;;;;;-6.00;70.82;99582.73;353633;113;1962986;-71
2021/01/21 00:03:35;;;;;;;38.37;20.19;;;;;;;-5.91;70.80;99578.60;357494;111;1962009;-71
2021/01/21 00:04:41;;;;;;;40.91;18.08;;;;;;;-5.88;71.01;99577.55;339279;111;1962971;-71
2021/01/21 00:06:00;;;;;;;40.59;20.47;;;;;;;-5.78;70.84;99581.25;353801;111;1962998;-71
2021/01/21 00:07:05;;;;;;;36.00;19.35;;;;;;;-5.70;70.71;99576.30;359148;110;1964002;-72
2021/01/21 00:08:10;;;;;;;37.04;18.64;;;;;;;-5.57;70.63;99579.78;357731;110;1961973;-72
2021/01/21 00:09:16;;;;;;;38.02;20.61;;;;;;;-5.48;70.20;99587.98;355047;113;1961891;-72
2021/01/21 00:10:22;;;;;;;34.87;18.69;;;;;;;-5.38;70.15;99578.50;336313;111;2227857;-71
2021/01/21 00:11:28;;;;;;;37.36;20.31;;;;;;;-5.32;69.92;99571.03;345864;113;1962001;-72
2021/01/21 00:12:33;;;;;;;38.72;20.35;;;;;;;-5.22;69.72;99581.75;351415;112;1960812;-71
2021/01/21 00:13:40;;;;;;;37.01;23.06;;;;;;;-5.12;69.42;99574.05;347972;115;1962068;-72
2021/01/21 00:14:45;;;;;;;40.62;23.30;;;;;;;-5.08;69.04;99586.03;306785;115;2109845;-72
2021/01/21 00:15:51;;;;;;;42.99;23.53;;;;;;;-5.15;69.02;99585.64;345959;116;1963927;-72
2021/01/21 00:16:57;;;;;;;43.77;24.19;;;;;;;-5.17;68.88;99584.06;345547;115;1963990;-72
2021/01/21 00:18:03;;;;;;;48.15;27.64;;;;;;;-5.23;68.83;99580.07;334848;115;2271021;-72
2021/01/21 00:19:08;;;;;;;48.66;27.51;;;;;;;-5.30;68.85;99587.55;348891;114;1962092;-72
2021/01/21 00:20:16;;;;;;;46.16;26.63;;;;;;;-5.38;69.01;99584.61;339683;114;2888004;-72
2021/01/21 00:21:22;;;;;;;44.74;24.23;;;;;;;-5.47;69.23;99587.89;339193;115;1962019;-71
2021/01/21 00:22:27;;;;;;;52.49;27.84;;;;;;;-5.57;69.60;99581.57;346515;115;1961943;-71
2021/01/21 00:23:33;;;;;;;55.04;27.60;;;;;;;-5.61;69.61;99580.09;343809;115;1962980;-71
2021/01/21 00:24:40;;;;;;;52.30;26.07;;;;;;;-5.68;69.79;99584.94;345038;115;1962067;-72
2021/01/21 00:25:50;;;;;;;43.83;25.58;;;;;;;-5.72;70.04;99580.82;345697;114;1961977;-72
2021/01/21 00:26:54;;;;;;;53.61;27.10;;;;;;;-5.77;69.98;99578.53;343927;115;1965969;-71
2021/01/21 00:28:00;;;;;;;51.71;25.48;;;;;;;-5.83;70.02;99580.72;345767;115;1963954;-71
2021/01/21 00:29:06;;;;;;;50.90;25.82;;;;;;;-5.83;70.11;99576.30;299187;115;2232232;-71
2021/01/21 00:30:12;;;;;;;42.93;24.11;;;;;;;-5.82;70.44;99571.87;348359;114;1962034;-71
2021/01/21 00:31:17;;;;;;;44.09;24.10;;;;;;;-5.80;70.59;99580.50;345285;117;1962076;-71
2021/01/21 00:32:24;;;;;;;44.26;22.03;;;;;;;-5.73;70.63;99583.58;347748;114;1962030;-72
2021/01/21 00:33:29;;;;;;;42.31;24.12;;;;;;;-5.66;70.50;99579.55;329093;115;1961977;-72
2021/01/21 00:34:35;;;;;;;41.49;21.01;;;;;;;-5.60;70.67;99577.36;344921;114;1962024;-72
2021/01/21 00:35:40;;;;;;;45.05;22.38;;;;;;;-5.48;70.43;99570.39;346829;115;1962047;-70
2021/01/21 00:36:46;;;;;;;44.22;22.36;;;;;;;-5.37;70.30;99567.88;346866;114;1961957;-71
2021/01/21 00:37:51;;;;;;;37.03;20.43;;;;;;;-5.30;70.17;99569.11;311222;116;2675970;-71
2021/01/21 00:38:57;;;;;;;41.44;21.86;;;;;;;-5.18;69.88;99572.70;338226;115;1961939;-70
2021/01/21 00:40:03;;;;;;;46.28;23.58;;;;;;;-5.09;69.89;99576.46;347950;114;1962017;-71
2021/01/21 00:41:09;;;;;;;44.86;24.78;;;;;;;-5.03;69.75;99568.11;339358;114;1960701;-71
2021/01/21 00:42:14;;;;;;;42.94;23.94;;;;;;;-4.97;69.52;99565.06;315653;114;2213972;-71
2021/01/21 00:43:20;;;;;;;43.24;24.93;;;;;;;-4.95;69.20;99565.80;348673;114;1962006;-71
2021/01/21 00:44:25;;;;;;;52.01;25.79;;;;;;;-5.00;69.06;99561.78;347751;114;1960830;-72
2021/01/21 00:45:31;;;;;;;49.02;26.11;;;;;;;-5.02;68.86;99561.08;347787;114;1962980;-72
2021/01/21 00:46:38;;;;;;;51.72;26.94;;;;;;;-5.11;68.90;99560.78;345824;115;1961915;-72
2021/01/21 00:47:43;;;;;;;55.17;28.92;;;;;;;-5.21;69.06;99551.84;347086;115;1961948;-73
2021/01/21 00:48:51;;;;;;;51.53;27.66;;;;;;;-5.28;69.23;99547.95;309709;115;2069850;-72
2021/01/21 00:49:56;;;;;;;46.38;24.73;;;;;;;-5.37;69.50;99548.59;347533;114;1961937;-71
2021/01/21 00:51:02;;;;;;;44.53;24.27;;;;;;;-5.40;69.34;99551.44;345990;114;1961964;-72
2021/01/21 00:52:08;;;;;;;56.32;27.02;;;;;;;-5.46;69.47;99544.81;329061;115;2185043;-72
2021/01/21 00:53:13;;;;;;;59.89;27.91;;;;;;;-5.51;69.77;99554.82;326995;116;1961927;-72
2021/01/21 00:54:18;;;;;;;54.41;28.31;;;;;;;-5.57;70.00;99553.46;345389;116;1962101;-71
2021/01/21 00:55:24;;;;;;;59.29;29.92;;;;;;;-5.60;70.01;99558.11;347233;115;1962948;-71
2021/01/21 00:56:31;;;;;;;47.62;25.02;;;;;;;-5.66;70.02;99556.74;332860;114;1964983;-71
2021/01/21 00:57:36;;;;;;;54.79;25.34;;;;;;;-5.69;70.49;99551.66;346972;114;1960830;-71
2021/01/21 00:58:41;;;;;;;51.79;25.09;;;;;;;-5.66;70.48;99554.11;348994;109;1962999;-70
2021/01/21 00:59:47;;;;;;;45.02;22.08;;;;;;;-5.66;70.82;99556.74;351719;114;1962900;-71
2021/01/21 01:00:53;;;;;;;44.92;22.64;;;;;;;-5.58;70.77;99551.79;325552;113;2229939;-71
2021/01/21 01:01:58;;;;;;;47.29;24.82;;;;;;;-5.46;70.73;99554.52;350133;113;1962017;-71
2021/01/21 01:03:07;;;;;;;43.45;24.11;;;;;;;-5.37;70.57;99559.12;350290;113;1963048;-71
2021/01/21 01:04:15;;;;;;;42.14;21.10;;;;;;;-5.29;70.52;99556.81;351104;113;1962027;-71
2021/01/21 01:05:21;;;;;;;47.07;23.84;;;;;;;-5.28;70.29;99539.22;320775;113;1962010;-71
2021/01/21 01:06:30;;;;;;;47.83;24.80;;;;;;;-5.09;69.95;99545.69;351685;112;1961915;-71
2021/01/21 01:07:36;;;;;;;52.47;27.05;;;;;;;-5.04;69.89;99560.34;348315;113;1963910;-71
2021/01/21 01:08:43;;;;;;;51.47;26.01;;;;;;;-4.94;69.92;99550.83;353034;113;1960714;-71
2021/01/21 01:09:48;;;;;;;48.06;25.07;;;;;;;-4.88;69.47;99545.11;329410;114;2464757;-71
2021/01/21 01:10:55;;;;;;;49.72;27.12;;;;;;;-4.85;69.26;99539.61;352906;113;1960860;-71
2021/01/21 01:12:06;;;;;;;43.99;23.61;;;;;;;-4.91;69.02;99548.81;351812;113;1961648;-71
2021/01/21 01:13:13;;;;;;;46.63;24.54;;;;;;;-4.98;69.18;99559.89;351731;112;1960871;-72
2021/01/21 01:14:19;;;;;;;45.83;24.89;;;;;;;-5.01;69.10;99554.84;351789;112;1960821;-71
2021/01/21 01:15:27;;;;;;;45.02;24.02;;;;;;;-5.08;69.15;99554.42;323671;113;2580778;-71
2021/01/21 01:16:34;;;;;;;51.57;27.03;;;;;;;-5.17;69.34;99542.77;322943;112;2663710;-71
2021/01/21 01:17:42;;;;;;;49.12;25.02;;;;;;;-5.21;69.35;99538.69;351869;113;1960782;-71
2021/01/21 01:18:47;;;;;;;54.62;28.51;;;;;;;-5.26;69.63;99539.96;322918;113;2235777;-71
2021/01/21 01:19:53;;;;;;;51.08;26.46;;;;;;;-5.30;69.73;99541.95;348393;113;1964011;-71
2021/01/21 01:20:58;;;;;;;51.33;28.56;;;;;;;-5.34;69.78;99537.88;349822;113;1962000;-71
2021/01/21 01:22:12;;;;;;;51.88;26.22;;;;;;;-5.41;70.14;99528.71;350133;113;1962014;-71
2021/01/21 01:23:18;;;;;;;53.13;27.02;;;;;;;-5.45;70.26;99535.99;338487;115;1962978;-71
2021/01/21 01:24:24;;;;;;;48.10;25.74;;;;;;;-5.50;70.30;99535.47;324930;115;2357931;-72
2021/01/21 01:25:30;;;;;;;46.87;23.83;;;;;;;-5.52;70.42;99530.30;339189;116;1961971;-71
2021/01/21 01:26:38;;;;;;;43.45;22.37;;;;;;;-5.46;70.67;99533.45;339282;117;1961910;-72
2021/01/21 01:27:45;;;;;;;38.87;21.48;;;;;;;-5.39;70.73;99532.09;341411;116;1961937;-71
2021/01/21 01:28:51;;;;;;;39.81;21.66;;;;;;;-5.28;70.70;99531.33;340607;114;1961948;-71
2021/01/21 01:29:56;;;;;;;41.24;22.84;;;;;;;-5.18;70.50;99540.26;331578;114;2300914;-72
2021/01/21 01:31:02;;;;;;;39.41;22.32;;;;;;;-5.09;70.22;99527.25;332715;117;1962027;-71
2021/01/21 01:32:09;;;;;;;47.27;22.58;;;;;;;-4.97;70.15;99529.98;348181;113;1962999;-72
2021/01/21 01:33:17;;;;;;;41.16;21.93;;;;;;;-4.92;69.87;99530.47;340155;117;1965026;-71
2021/01/21 01:34:23;;;;;;;46.30;22.75;;;;;;;-4.91;70.07;99538.27;348651;114;1964938;-72
2021/01/21 01:35:36;;;;;;;43.76;21.54;;;;;;;-4.84;69.95;99530.78;347590;114;1962018;-72
2021/01/21 01:36:43;;;;;;;45.95;21.59;;;;;;;-4.77;69.90;99524.09;311440;113;2119735;-72
2021/01/21 01:37:49;;;;;;;49.07;24.23;;;;;;;-4.70;69.73;99533.23;347029;114;1960964;-72
2021/01/21 01:38:57;;;;;;;43.94;23.98;;;;;;;-4.72;69.53;99516.69;313503;114;2703000;-71
2021/01/21 01:40:12;;;;;;;46.73;24.28;;;;;;;-4.70;69.24;99521.86;324932;117;1963947;-71
2021/01/21 01:41:19;;;;;;;44.32;24.14;;;;;;;-4.75;69.15;99521.35;347501;114;1962015;-71
2021/01/21 01:42:25;;;;;;;47.63;24.17;;;;;;;-4.84;69.28;99520.23;338234;114;2224960;-72
2021/01/21 01:43:31;;;;;;;49.23;25.41;;;;;;;-4.91;69.30;99518.99;335352;118;1964020;-71
2021/01/21 01:44:38;;;;;;;49.94;26.42;;;;;;;-4.97;69.39;99512.38;344248;117;1964023;-71
2021/01/21 01:45:43;;;;;;;49.54;26.33;;;;;;;-5.02;69.39;99517.14;311570;114;2108415;-71
2021/01/21 01:46:51;;;;;;;47.09;23.33;;;;;;;-5.09;69.75;99510.62;341667;116;1962082;-71
2021/01/21 01:47:58;;;;;;;54.16;28.75;;;;;;;-5.12;69.72;99511.67;343059;114;1961975;-71
2021/01/21 01:49:12;;;;;;;53.36;26.93;;;;;;;-5.19;69.97;99514.86;335569;117;1961987;-71
2021/01/21 01:50:19;;;;;;;49.32;27.87;;;;;;;-5.23;69.93;99511.61;324699;114;2830010;-71
2021/01/21 01:51:25;;;;;;;49.96;26.34;;;;;;;-5.26;70.26;99514.47;333288;112;1962011;-71
2021/01/21 01:52:31;;;;;;;49.24;27.18;;;;;;;-5.29;70.28;99517.33;339976;117;1962036;-70
2021/01/21 01:53:41;;;;;;;48.26;23.84;;;;;;;-5.36;70.76;99516.06;344607;114;1962005;-71
2021/01/21 01:54:59;;;;;;;40.88;20.27;;;;;;;-5.35;71.14;99515.11;339407;117;1961970;-71
2021/01/21 01:56:06;;;;;;;42.60;21.62;;;;;;;-5.26;71.04;99513.64;306692;112;2235380;-71
2021/01/21 01:57:17;;;;;;;44.52;22.31;;;;;;;-5.17;71.01;99503.27;323811;113;1961990;-72
2021/01/21 01:58:24;;;;;;;43.85;22.84;;;;;;;-5.06;70.81;99506.92;345053;115;1962017;-71
2021/01/21 01:59:39;;;;;;;39.50;18.94;;;;;;;-4.98;70.69;99512.47;345763;115;1964022;-71
2021/01/21 02:00:48;;;;;;;39.69;22.07;;;;;;;-4.89;70.55;99503.92;346012;116;1960811;-71
2021/01/21 02:01:55;;;;;;;39.62;17.84;;;;;;;-4.82;70.42;99499.86;345611;115;1961983;-71
2021/01/21 02:03:04;;;;;;;39.64;20.00;;;;;;;-4.72;70.11;99498.23;307845;115;2934960;-72
2021/01/21 02:04:10;;;;;;;41.26;19.84;;;;;;;-4.64;70.15;99490.61;347246;116;1961918;-72
2021/01/21 02:05:21;;;;;;;42.63;20.34;;;;;;;-4.58;69.92;99494.58;340597;116;1962043;-72
2021/01/21 02:06:30;;;;;;;39.87;21.43;;;;;;;-4.51;69.80;99490.54;346252;115;1961976;-72
2021/01/21 02:07:36;;;;;;;41.92;21.82;;;;;;;-4.45;69.36;99489.23;337272;116;2198926;-72
2021/01/21 02:08:44;;;;;;;37.29;21.38;;;;;;;-4.39;69.36;99494.08;345486;116;1962952;-71
2021/01/21 02:09:50;;;;;;;42.38;21.96;;;;;;;-4.39;69.03;99494.08;332572;116;2192971;-71
2021/01/21 02:11:00;;;;;;;40.61;22.74;;;;;;;-4.41;68.85;99488.06;346498;116;1962015;-71
2021/01/21 02:12:33;;;;;;;44.13;23.17;;;;;;;-4.50;68.86;99491.37;320735;113;2593089;-71
2021/01/21 02:13:48;;;;;;;47.28;25.01;;;;;;;-4.60;69.08;99493.02;344625;114;1965069;-72
2021/01/21 02:15:08;;;;;;;44.24;23.73;;;;;;;-4.72;69.33;99490.33;345031;116;1961945;-70
2021/01/21 02:16:35;;;;;;;42.35;22.83;;;;;;;-4.76;69.29;99480.99;346332;116;1962920;-72
2021/01/21 02:17:44;;;;;;;44.54;24.21;;;;;;;-4.83;69.70;99479.75;328872;115;1961984;-71
2021/01/21 02:19:13;;;;;;;46.44;25.65;;;;;;;-4.94;69.96;99477.07;332994;116;1960910;-71
2021/01/21 02:20:42;;;;;;;49.54;26.16;;;;;;;-5.00;70.29;99480.13;349420;116;1961955;-71
2021/01/21 02:21:54;;;;;;;46.58;24.24;;;;;;;-5.03;70.25;99477.73;319202;116;1964986;-71
2021/01/21 02:23:21;;;;;;;38.46;22.53;;;;;;;-5.10;70.71;99487.88;345745;115;1961914;-71
2021/01/21 02:24:48;;;;;;;42.20;22.22;;;;;;;-5.12;70.75;99473.97;349913;113;1962991;-71
2021/01/21 02:26:10;;;;;;;42.65;18.22;;;;;;;-5.07;70.98;99487.66;333344;117;2213987;-71
2021/01/21 02:27:19;;;;;;;37.63;18.24;;;;;;;-4.93;70.98;99481.38;344153;117;1962940;-71
2021/01/21 02:28:35;;;;;;;34.97;18.22;;;;;;;-4.85;70.92;99476.38;343368;115;1962993;-71
2021/01/21 02:29:41;;;;;;;33.88;19.59;;;;;;;-4.74;70.67;99483.50;348733;114;1962939;-71
2021/01/21 02:30:57;;;;;;;35.21;19.32;;;;;;;-4.61;70.44;99484.27;323901;115;2871993;-70
2021/01/21 02:32:13;;;;;;;36.28;18.87;;;;;;;-4.57;70.32;99483.10;345222;116;1962012;-71
2021/01/21 02:33:55;;;;;;;35.17;19.02;;;;;;;-4.53;70.23;99471.36;338947;117;1962056;-71
2021/01/21 02:35:11;;;;;;;38.17;18.78;;;;;;;-4.48;70.01;99481.56;346317;116;1962005;-71
2021/01/21 02:36:39;;;;;;;35.10;18.00;;;;;;;-4.33;70.01;99474.31;345880;116;1962023;-71
2021/01/21 02:37:55;;;;;;;31.84;16.83;;;;;;;-4.25;69.88;99456.94;343470;115;1961987;-71
2021/01/21 02:39:04;;;;;;;33.64;17.93;;;;;;;-4.15;69.71;99472.91;345849;116;1964015;-72
2021/01/21 02:40:14;;;;;;;35.83;18.99;;;;;;;-4.05;69.16;99468.63;340357;108;1960721;-71
2021/01/21 02:41:22;;;;;;;33.76;18.21;;;;;;;-4.04;69.04;99464.17;334534;118;1961955;-71
2021/01/21 02:42:29;;;;;;;36.53;19.12;;;;;;;-4.04;68.88;99466.81;333721;118;1962031;-71
2021/01/21 02:43:36;;;;;;;37.20;20.21;;;;;;;-4.10;68.81;99478.69;319031;118;2870005;-72
2021/01/21 02:44:41;;;;;;;39.63;20.89;;;;;;;-4.17;68.86;99484.53;300656;125;1961968;-72
2021/01/21 02:45:47;;;;;;;40.85;22.54;;;;;;;-4.25;68.97;99477.20;320401;123;1962016;-72
2021/01/21 02:46:53;;;;;;;33.32;19.56;;;;;;;-4.33;69.17;99479.59;336406;118;1962884;-71
2021/01/21 02:48:01;;;;;;;44.02;23.15;;;;;;;-4.40;69.36;99491.54;320820;118;2226991;-71
2021/01/21 02:49:25;;;;;;;37.51;19.81;;;;;;;-4.52;69.65;99480.97;336889;118;1962035;-72
2021/01/21 02:50:32;;;;;;;39.59;22.15;;;;;;;-4.59;69.85;99478.89;321346;118;2223032;-71
2021/01/21 02:51:46;;;;;;;46.97;23.64;;;;;;;-4.62;69.79;99479.97;334763;118;1962003;-71
2021/01/21 02:53:00;;;;;;;45.48;23.48;;;;;;;-4.70;70.14;99483.16;334522;118;1961890;-71
2021/01/21 02:54:26;;;;;;;38.35;21.38;;;;;;;-4.78;70.69;99468.88;313508;118;1961984;-71
2021/01/21 02:55:41;;;;;;;39.45;20.27;;;;;;;-4.81;70.58;99463.84;333309;118;1969939;-71
2021/01/21 02:56:51;;;;;;;35.25;19.07;;;;;;;-4.82;70.87;99455.08;336147;118;1961985;-71
2021/01/21 02:58:03;;;;;;;35.77;19.98;;;;;;;-4.75;70.90;99464.22;335475;118;1963025;-71
2021/01/21 02:59:10;;;;;;;;;;;;;;;-4.66;71.00;99465.31;337584;117;1964014;-72
2021/01/21 03:00:18;;;;;;;32.97;16.40;;;;;;;-4.62;71.11;99463.31;308339;118;2208029;-71
2021/01/21 03:01:24;;;;;;;34.33;17.04;;;;;;;-4.49;70.95;99458.80;336466;118;1962033;-76
2021/01/21 03:02:35;;;;;;;32.86;17.21;;;;;;;-4.43;70.74;99461.80;328313;118;1961943;-70
2021/01/21 03:03:43;;;;;;;36.60;18.14;;;;;;;-4.33;70.58;99474.31;331244;118;1962004;-71
2021/01/21 03:04:52;;;;;;;33.77;18.99;;;;;;;-4.22;70.42;99464.61;305187;118;2239058;-71
2021/01/21 03:06:01;;;;;;;36.43;17.23;;;;;;;-4.15;70.25;99465.00;330159;120;1962034;-71
2021/01/21 03:07:12;;;;;;;34.86;17.42;;;;;;;-4.05;70.16;99454.56;328839;120;1961935;-72
2021/01/21 03:08:19;;;;;;;31.91;16.75;;;;;;;-3.99;69.86;99459.39;315990;114;1963989;-71
2021/01/21 03:09:25;;;;;;;35.46;18.28;;;;;;;-3.93;69.59;99466.82;341857;109;1959703;-71
2021/01/21 03:10:32;;;;;;;33.13;17.68;;;;;;;-3.90;69.71;99453.38;311214;113;2797048;-71
2021/01/21 03:11:37;;;;;;;37.03;19.42;;;;;;;-3.83;69.40;99462.52;338629;113;1961996;-71
2021/01/21 03:12:53;;;;;;;34.52;18.24;;;;;;;-3.86;69.06;99461.92;349485;112;1960904;-72
2021/01/21 03:13:59;;;;;;;37.66;18.99;;;;;;;-3.89;68.96;99467.41;347398;115;1962819;-72
2021/01/21 03:15:06;;;;;;;37.33;20.78;;;;;;;-3.99;69.05;99472.58;331880;116;1960890;-72
2021/01/21 03:16:14;;;;;;;37.66;19.68;;;;;;;-4.07;69.18;99475.80;318581;115;1961961;-71
2021/01/21 03:17:23;;;;;;;38.62;20.97;;;;;;;-4.15;69.32;99465.00;346755;115;1960940;-72
2021/01/21 03:18:31;;;;;;;34.65;20.32;;;;;;;-4.22;69.60;99459.34;345963;115;1960883;-71
2021/01/21 03:19:41;;;;;;;42.28;23.11;;;;;;;-4.28;69.63;99459.81;327004;118;2219916;-71
2021/01/21 03:20:47;;;;;;;35.39;19.33;;;;;;;-4.37;70.05;99472.84;343849;115;1960984;-72
2021/01/21 03:21:55;;;;;;;43.69;23.19;;;;;;;-4.44;70.21;99459.30;322488;115;2885987;-72
2021/01/21 03:23:01;;;;;;;31.36;17.64;;;;;;;-4.52;70.58;99464.31;347294;115;1962002;-71
2021/01/21 03:24:07;;;;;;;36.22;18.66;;;;;;;-4.52;70.82;99461.67;336078;118;1961051;-71
2021/01/21 03:25:14;;;;;;;37.18;17.74;;;;;;;-4.50;70.75;99459.74;302586;115;2134020;-71
2021/01/21 03:26:23;;;;;;;31.80;16.54;;;;;;;-4.43;70.74;99472.35;309707;117;2527868;-72
2021/01/21 03:27:33;;;;;;;35.50;18.05;;;;;;;-4.31;70.73;99470.60;314668;115;1962018;-71
2021/01/21 03:28:41;;;;;;;31.73;17.72;;;;;;;-4.27;70.73;99466.76;342123;116;1964046;-72
2021/01/21 03:29:48;;;;;;;35.38;18.34;;;;;;;-4.19;70.69;99476.73;338123;116;1962009;-71
2021/01/21 03:30:55;;;;;;;33.93;17.69;;;;;;;-4.12;70.79;99464.77;343952;116;1961890;-71
2021/01/21 03:32:01;;;;;;;34.67;18.38;;;;;;;-3.99;70.39;99467.30;324064;114;2407890;-71
2021/01/21 03:33:09;;;;;;;33.79;17.18;;;;;;;-3.92;70.15;99463.20;342645;115;1960623;-72
2021/01/21 03:34:16;;;;;;;32.07;15.86;;;;;;;-3.89;70.05;99468.28;343584;115;1961921;-72
2021/01/21 03:35:24;;;;;;;30.16;18.37;;;;;;;-3.82;69.79;99448.34;344445;115;1962942;-71
2021/01/21 03:36:31;;;;;;;30.84;15.87;;;;;;;-3.74;69.71;99460.95;342446;116;1961998;-70
2021/01/21 03:37:38;;;;;;;38.42;20.01;;;;;;;-3.67;69.60;99458.68;306988;117;2219937;-71
2021/01/21 03:38:44;;;;;;;38.03;21.07;;;;;;;-3.65;69.29;99462.02;328884;120;1962074;-71
2021/01/21 03:39:54;;;;;;;34.10;20.07;;;;;;;-3.70;69.31;99461.56;337567;118;1961991;-71
2021/01/21 03:41:13;;;;;;;36.77;19.88;;;;;;;-3.71;69.14;99463.34;338956;117;1962049;-71
2021/01/21 03:42:20;;;;;;;35.42;19.33;;;;;;;-3.79;69.07;99463.11;296851;119;2813929;-71
2021/01/21 03:43:28;;;;;;;33.12;19.81;;;;;;;-3.89;69.23;99468.28;339496;117;1960898;-71
2021/01/21 03:44:35;;;;;;;40.37;22.56;;;;;;;-3.97;69.39;99454.81;341191;115;1962005;-71
2021/01/21 03:45:41;;;;;;;39.52;19.77;;;;;;;-4.09;70.21;99475.08;345567;116;1961995;-72
2021/01/21 03:46:48;;;;;;;35.53;19.12;;;;;;;-4.13;69.92;99459.59;309994;117;1961944;-71
2021/01/21 03:47:56;;;;;;;43.96;20.53;;;;;;;-4.18;70.15;99464.38;338684;117;1961999;-72
2021/01/21 03:49:02;;;;;;;33.61;17.64;;;;;;;-4.27;70.52;99461.48;331966;115;2257016;-72
2021/01/21 03:50:12;;;;;;;33.91;17.45;;;;;;;-4.23;70.41;99459.48;300968;117;2723009;-72
2021/01/21 03:51:18;;;;;;;31.43;17.21;;;;;;;-4.23;70.50;99460.31;330670;120;1961997;-72
2021/01/21 03:52:25;;;;;;;34.71;18.19;;;;;;;-4.21;70.81;99461.04;329263;115;2273924;-72
2021/01/21 03:53:35;;;;;;;36.03;18.09;;;;;;;-4.18;70.87;99467.87;310685;115;2018057;-72
2021/01/21 03:54:51;;;;;;;34.56;17.59;;;;;;;-4.27;70.82;99429.84;332628;121;1961940;-71
2021/01/21 03:55:58;;;;;;;30.87;16.94;;;;;;;-3.99;70.65;99459.39;337493;118;1962024;-71
2021/01/21 03:57:03;;;;;;;35.13;18.39;;;;;;;-3.89;70.58;99451.58;324520;115;2423035;-71
2021/01/21 03:58:08;;;;;;;35.77;19.70;;;;;;;-3.82;70.40;99453.63;319571;115;1964051;-71
2021/01/21 03:59:16;;;;;;;34.58;15.79;;;;;;;-3.76;70.29;99449.66;345064;116;1962990;-71
2021/01/21 04:00:25;;;;;;;34.84;17.64;;;;;;;-3.70;70.23;99440.45;338275;119;1962015;-71
2021/01/21 04:01:45;;;;;;;30.76;16.56;;;;;;;-3.61;70.04;99447.63;311158;115;2239958;-71
2021/01/21 04:02:51;;;;;;;33.73;16.36;;;;;;;-3.55;69.83;99439.22;303304;113;2189820;-72
2021/01/21 04:03:59;;;;;;;35.64;18.01;;;;;;;-3.51;69.63;99437.19;350951;112;1964090;-71
2021/01/21 04:05:06;;;;;;;35.49;20.19;;;;;;;-3.46;69.54;99440.31;312108;114;2206984;-71
2021/01/21 04:06:13;;;;;;;33.66;17.53;;;;;;;-3.49;69.52;99433.47;347969;112;1961980;-71
2021/01/21 04:07:18;;;;;;;31.42;17.75;;;;;;;-3.56;69.45;99430.46;341793;112;2195958;-71
2021/01/21 04:08:24;;;;;;;36.15;20.29;;;;;;;-3.58;69.28;99435.02;338320;109;1964801;-71
2021/01/21 04:09:31;;;;;;;37.82;19.13;;;;;;;-3.65;69.35;99441.77;348460;113;1961979;-71
2021/01/21 04:10:47;;;;;;;34.10;17.84;;;;;;;-3.73;69.40;99441.53;336052;115;1962965;-71
2021/01/21 04:11:54;;;;;;;42.90;19.96;;;;;;;-3.85;69.87;99434.56;341223;116;1961890;-71
2021/01/21 04:13:00;;;;;;;40.41;19.53;;;;;;;-3.92;69.91;99435.99;323093;112;2459979;-71
2021/01/21 04:14:05;;;;;;;40.98;22.29;;;;;;;-4.00;70.12;99445.33;341396;113;1961932;-72
2021/01/21 04:15:11;;;;;;;40.27;21.24;;;;;;;-4.08;70.22;99449.53;349885;112;1960733;-71
2021/01/21 04:16:18;;;;;;;39.15;19.02;;;;;;;-4.17;70.70;99440.53;300291;115;2874033;-70
2021/01/21 04:17:24;;;;;;;30.02;15.02;;;;;;;-4.22;70.83;99450.59;344645;115;1961940;-71
2021/01/21 04:18:30;;;;;;;33.42;17.92;;;;;;;-4.17;71.24;99444.97;344104;115;1962923;-71
2021/01/21 04:19:37;;;;;;;35.41;19.06;;;;;;;-4.13;71.59;99443.77;325653;113;2492024;-71
2021/01/21 04:20:43;;;;;;;32.63;16.50;;;;;;;-4.06;71.50;99453.73;346845;113;1963975;-71
2021/01/21 04:21:51;;;;;;;38.02;18.31;;;;;;;-4.01;71.37;99456.02;342336;115;1962016;-72
2021/01/21 04:22:59;;;;;;;33.09;19.76;;;;;;;-3.94;71.25;99459.87;343630;115;1960952;-71
2021/01/21 04:24:06;;;;;;;30.04;16.38;;;;;;;-3.86;71.26;99460.12;324582;113;1962015;-72
2021/01/21 04:25:13;;;;;;;33.69;16.93;;;;;;;-3.82;71.39;99445.70;345989;115;1961895;-72
2021/01/21 04:26:23;;;;;;;36.27;18.35;;;;;;;-3.68;70.92;99447.26;345862;115;1961969;-71
2021/01/21 04:27:30;;;;;;;33.43;16.32;;;;;;;-3.64;70.82;99458.44;350848;113;1961988;-71
2021/01/21 04:28:38;;;;;;;38.28;17.74;;;;;;;-3.56;70.72;99456.03;305256;116;2779045;-71
2021/01/21 04:29:44;;;;;;;32.67;16.98;;;;;;;-3.49;70.60;99451.09;343645;115;1962012;-70
2021/01/21 04:30:50;;;;;;;31.31;16.31;;;;;;;-3.46;70.49;99451.70;345827;115;1964032;-71
2021/01/21 04:31:56;;;;;;;36.55;18.19;;;;;;;-3.36;70.40;99450.02;348453;113;1962005;-72
2021/01/21 04:33:04;;;;;;;34.11;17.95;;;;;;;-3.28;70.13;99445.90;348770;113;1961938;-71
2021/01/21 04:34:10;;;;;;;35.38;17.78;;;;;;;-3.29;70.04;99455.62;350580;113;1962005;-72
2021/01/21 04:35:18;;;;;;;34.43;18.87;;;;;;;-3.27;70.07;99458.99;318925;113;1961917;-71
2021/01/21 04:36:27;;;;;;;32.91;17.66;;;;;;;-3.21;70.01;99457.66;344636;115;1961978;-71
2021/01/21 04:37:32;;;;;;;36.08;16.08;;;;;;;-3.19;69.64;99461.02;345983;115;1961948;-72
2021/01/21 04:38:41;;;;;;;36.24;18.65;;;;;;;-3.14;69.42;99462.33;329015;113;1962065;-72
2021/01/21 04:39:49;;;;;;;36.11;18.63;;;;;;;-3.06;69.38;99451.14;341910;113;2876003;-71
2021/01/21 04:40:56;;;;;;;30.45;18.69;;;;;;;-3.06;69.19;99456.42;347884;113;1962029;-71
2021/01/21 04:42:19;;;;;;;33.36;17.76;;;;;;;-3.11;69.08;99448.03;349755;113;1962017;-71
2021/01/21 04:43:27;;;;;;;36.35;19.83;;;;;;;-3.22;69.21;99461.27;319974;115;2508944;-71
2021/01/21 04:44:35;;;;;;;43.03;22.48;;;;;;;-3.29;69.16;99444.23;348600;112;1963982;-71
2021/01/21 04:45:42;;;;;;;41.86;21.91;;;;;;;-3.40;69.40;99445.92;348533;113;1962110;-71
2021/01/21 04:46:49;;;;;;;43.72;22.08;;;;;;;-3.48;69.60;99443.05;346011;115;1963027;-73
2021/01/21 04:47:56;;;;;;;43.73;23.08;;;;;;;-3.60;69.91;99434.33;324836;113;1961987;-71
2021/01/21 04:49:04;;;;;;;41.29;20.27;;;;;;;-3.69;70.22;99436.84;306391;115;2769996;-71
2021/01/21 04:50:12;;;;;;;38.76;19.66;;;;;;;-3.77;70.45;99440.08;346865;115;1964041;-71
2021/01/21 04:51:21;;;;;;;37.17;19.41;;;;;;;-3.81;70.58;99443.91;346552;115;1961997;-71
2021/01/21 04:52:37;;;;;;;41.09;21.11;;;;;;;-3.85;71.05;99438.03;349716;113;1962932;-71
2021/01/21 04:53:50;;;;;;;34.91;18.52;;;;;;;-3.92;71.12;99430.72;348056;112;1961966;-72
2021/01/21 04:55:04;;;;;;;37.93;18.61;;;;;;;-3.82;71.46;99436.95;351128;113;1962053;-72
2021/01/21 04:56:16;;;;;;;38.36;18.46;;;;;;;-3.75;71.48;99440.80;348854;113;1961939;-71
2021/01/21 04:57:31;;;;;;;32.37;18.01;;;;;;;-3.66;71.36;99442.70;345097;115;1962019;-72
2021/01/21 04:58:45;;;;;;;38.02;19.42;;;;;;;-3.60;71.38;99438.73;344744;115;1961906;-71
2021/01/21 05:00:00;;;;;;;37.86;18.33;;;;;;;-3.48;71.04;99443.05;347622;113;1963958;-71
2021/01/21 05:01:14;;;;;;;38.11;20.01;;;;;;;-3.40;70.91;99437.17;297363;119;2219000;-72
2021/01/21 05:02:22;;;;;;;36.07;18.42;;;;;;;-3.41;71.05;99438.14;344764;115;1962033;-71
2021/01/21 05:03:30;;;;;;;40.84;19.71;;;;;;;-3.34;70.73;99440.14;337431;115;1962058;-71
2021/01/21 05:04:50;;;;;;;37.11;16.29;;;;;;;-3.23;70.55;99449.01;344804;115;1962008;-72
2021/01/21 05:05:57;;;;;;;37.57;18.16;;;;;;;-3.16;70.13;99448.39;323787;115;1963451;-72
2021/01/21 05:07:03;;;;;;;43.91;20.21;;;;;;;-3.13;70.09;99450.78;343919;115;1963055;-72
2021/01/21 05:08:11;;;;;;;39.32;21.51;;;;;;;-3.09;69.92;99459.33;341774;117;1963951;-72
2021/01/21 05:09:20;;;;;;;39.53;19.84;;;;;;;-3.10;69.96;99449.70;340129;117;1961995;-71